sensor_id;sensor_type;location;lat;lon;timestamp;P1;durP1;ratioP1;P2;durP2;ratioP2
18100;SDS011;9177;49.156;8.142;2023-02-15T00:01:42;8.87;;;8.07;;
18100;SDS011;9177;49.156;8.142;2023-02-15T00:04:09;8.40;;;7.70;;
18100;SDS011;9177;49.156;8.142;2023-02-15T00:06:38;8.73;;;7.83;;
18100;SDS011;9177;49.156;8.142;2023-02-15T00:09:07;9.17;;;8.37;;
18100;SDS011;9177;49.156;8.142;2023-02-15T00:11:35;8.80;;;8.00;;
18100;SDS011;9177;49.156;8.142;2023-02-15T00:14:15;8.57;;;7.83;;
18100;SDS011;9177;49.156;8.142;2023-02-15T00:16:43;8.60;;;7.70;;
18100;SDS011;9177;49.156;8.142;2023-02-15T00:19:11;9.03;;;7.73;;
18100;SDS011;9177;49.156;8.142;2023-02-15T00:21:38;8.60;;;7.80;;
18100;SDS011;9177;49.156;8.142;2023-02-15T00:24:08;8.07;;;7.37;;
18100;SDS011;9177;49.156;8.142;2023-02-15T00:26:37;8.80;;;8.10;;
18100;SDS011;9177;49.156;8.142;2023-02-15T00:29:05;8.77;;;7.83;;
18100;SDS011;9177;49.156;8.142;2023-02-15T00:31:33;10.60;;;8.60;;
18100;SDS011;9177;49.156;8.142;2023-02-15T00:34:01;8.47;;;7.63;;
18100;SDS011;9177;49.156;8.142;2023-02-15T00:36:28;8.73;;;7.83;;
18100;SDS011;9177;49.156;8.142;2023-02-15T00:38:55;8.90;;;8.07;;
18100;SDS011;9177;49.156;8.142;2023-02-15T00:41:23;8.93;;;8.13;;
18100;SDS011;9177;49.156;8.142;2023-02-15T00:43:51;8.47;;;7.67;;
18100;SDS011;9177;49.156;8.142;2023-02-15T00:46:18;8.60;;;7.80;;
18100;SDS011;9177;49.156;8.142;2023-02-15T00:48:45;8.67;;;7.87;;
18100;SDS011;9177;49.156;8.142;2023-02-15T00:51:12;9.00;;;8.10;;
18100;SDS011;9177;49.156;8.142;2023-02-15T00:53:39;8.50;;;7.70;;
18100;SDS011;9177;49.156;8.142;2023-02-15T00:56:05;8.60;;;7.77;;
18100;SDS011;9177;49.156;8.142;2023-02-15T00:58:34;8.40;;;7.70;;
18100;SDS011;9177;49.156;8.142;2023-02-15T01:01:02;9.23;;;8.33;;
18100;SDS011;9177;49.156;8.142;2023-02-15T01:03:30;8.83;;;7.97;;
18100;SDS011;9177;49.156;8.142;2023-02-15T01:06:00;8.97;;;8.07;;
18100;SDS011;9177;49.156;8.142;2023-02-15T01:08:28;9.57;;;8.57;;
18100;SDS011;9177;49.156;8.142;2023-02-15T01:10:55;8.93;;;8.00;;
18100;SDS011;9177;49.156;8.142;2023-02-15T01:13:22;8.83;;;7.97;;
18100;SDS011;9177;49.156;8.142;2023-02-15T01:15:53;9.00;;;8.13;;
18100;SDS011;9177;49.156;8.142;2023-02-15T01:18:21;8.47;;;7.67;;
18100;SDS011;9177;49.156;8.142;2023-02-15T01:20:48;8.87;;;8.00;;
18100;SDS011;9177;49.156;8.142;2023-02-15T01:23:15;8.60;;;7.80;;
18100;SDS011;9177;49.156;8.142;2023-02-15T01:25:42;8.37;;;7.57;;
18100;SDS011;9177;49.156;8.142;2023-02-15T01:28:09;8.13;;;7.40;;
18100;SDS011;9177;49.156;8.142;2023-02-15T01:30:36;8.67;;;7.77;;
18100;SDS011;9177;49.156;8.142;2023-02-15T01:33:05;8.00;;;7.30;;
18100;SDS011;9177;49.156;8.142;2023-02-15T01:35:42;8.53;;;7.73;;
18100;SDS011;9177;49.156;8.142;2023-02-15T01:38:09;8.07;;;7.30;;
18100;SDS011;9177;49.156;8.142;2023-02-15T01:40:36;8.60;;;7.80;;
18100;SDS011;9177;49.156;8.142;2023-02-15T01:43:07;8.30;;;7.47;;
18100;SDS011;9177;49.156;8.142;2023-02-15T01:45:38;7.80;;;7.10;;
18100;SDS011;9177;49.156;8.142;2023-02-15T01:48:13;8.13;;;7.33;;
18100;SDS011;9177;49.156;8.142;2023-02-15T01:50:46;7.97;;;7.27;;
18100;SDS011;9177;49.156;8.142;2023-02-15T01:53:16;8.77;;;7.90;;
18100;SDS011;9177;49.156;8.142;2023-02-15T01:55:47;8.37;;;7.57;;
18100;SDS011;9177;49.156;8.142;2023-02-15T01:58:16;7.90;;;7.10;;
18100;SDS011;9177;49.156;8.142;2023-02-15T02:00:45;7.33;;;6.63;;
18100;SDS011;9177;49.156;8.142;2023-02-15T02:03:13;7.33;;;6.63;;
18100;SDS011;9177;49.156;8.142;2023-02-15T02:05:41;7.80;;;7.10;;
18100;SDS011;9177;49.156;8.142;2023-02-15T02:08:08;7.43;;;6.77;;
18100;SDS011;9177;49.156;8.142;2023-02-15T02:10:35;7.63;;;6.93;;
18100;SDS011;9177;49.156;8.142;2023-02-15T02:13:03;7.77;;;7.10;;
18100;SDS011;9177;49.156;8.142;2023-02-15T02:15:33;6.97;;;6.37;;
18100;SDS011;9177;49.156;8.142;2023-02-15T02:18:10;7.97;;;7.17;;
18100;SDS011;9177;49.156;8.142;2023-02-15T02:21:11;7.03;;;6.43;;
18100;SDS011;9177;49.156;8.142;2023-02-15T02:24:14;7.43;;;6.73;;
18100;SDS011;9177;49.156;8.142;2023-02-15T02:27:11;7.50;;;6.80;;
18100;SDS011;9177;49.156;8.142;2023-02-15T02:35:37;6.70;;;6.10;;
18100;SDS011;9177;49.156;8.142;2023-02-15T02:38:10;7.07;;;6.23;;
18100;SDS011;9177;49.156;8.142;2023-02-15T02:40:48;7.23;;;6.53;;
18100;SDS011;9177;49.156;8.142;2023-02-15T02:43:21;6.70;;;6.10;;
18100;SDS011;9177;49.156;8.142;2023-02-15T02:45:56;6.93;;;6.33;;
18100;SDS011;9177;49.156;8.142;2023-02-15T02:48:28;7.10;;;6.40;;
18100;SDS011;9177;49.156;8.142;2023-02-15T02:50:58;6.57;;;5.97;;
18100;SDS011;9177;49.156;8.142;2023-02-15T02:53:25;6.70;;;6.10;;
18100;SDS011;9177;49.156;8.142;2023-02-15T02:55:56;6.97;;;6.37;;
18100;SDS011;9177;49.156;8.142;2023-02-15T02:58:26;6.73;;;6.13;;
18100;SDS011;9177;49.156;8.142;2023-02-15T03:01:01;6.60;;;6.00;;
18100;SDS011;9177;49.156;8.142;2023-02-15T03:03:34;6.40;;;5.80;;
18100;SDS011;9177;49.156;8.142;2023-02-15T03:06:05;8.23;;;6.03;;
18100;SDS011;9177;49.156;8.142;2023-02-15T03:08:37;7.07;;;6.37;;
18100;SDS011;9177;49.156;8.142;2023-02-15T03:11:09;6.40;;;5.83;;
18100;SDS011;9177;49.156;8.142;2023-02-15T03:13:38;6.40;;;5.80;;
18100;SDS011;9177;49.156;8.142;2023-02-15T03:16:05;6.23;;;5.63;;
18100;SDS011;9177;49.156;8.142;2023-02-15T03:18:55;6.13;;;5.63;;
18100;SDS011;9177;49.156;8.142;2023-02-15T03:21:31;5.73;;;5.23;;
18100;SDS011;9177;49.156;8.142;2023-02-15T03:24:03;5.73;;;5.23;;
18100;SDS011;9177;49.156;8.142;2023-02-15T03:26:34;6.20;;;5.70;;
18100;SDS011;9177;49.156;8.142;2023-02-15T03:29:13;6.40;;;5.80;;
18100;SDS011;9177;49.156;8.142;2023-02-15T03:31:42;6.33;;;5.73;;
18100;SDS011;9177;49.156;8.142;2023-02-15T03:34:13;5.77;;;5.27;;
18100;SDS011;9177;49.156;8.142;2023-02-15T03:36:44;6.23;;;5.63;;
18100;SDS011;9177;49.156;8.142;2023-02-15T03:39:16;5.73;;;5.23;;
18100;SDS011;9177;49.156;8.142;2023-02-15T03:41:48;5.67;;;5.10;;
18100;SDS011;9177;49.156;8.142;2023-02-15T03:44:23;5.93;;;5.43;;
18100;SDS011;9177;49.156;8.142;2023-02-15T03:46:55;5.13;;;4.73;;
18100;SDS011;9177;49.156;8.142;2023-02-15T03:49:29;5.67;;;5.13;;
18100;SDS011;9177;49.156;8.142;2023-02-15T03:52:02;5.40;;;4.90;;
18100;SDS011;9177;49.156;8.142;2023-02-15T03:54:31;5.47;;;4.97;;
18100;SDS011;9177;49.156;8.142;2023-02-15T03:57:18;5.77;;;5.27;;
18100;SDS011;9177;49.156;8.142;2023-02-15T04:00:04;5.43;;;5.00;;
18100;SDS011;9177;49.156;8.142;2023-02-15T04:03:01;5.67;;;5.17;;
18100;SDS011;9177;49.156;8.142;2023-02-15T04:05:38;5.87;;;5.37;;
18100;SDS011;9177;49.156;8.142;2023-02-15T04:08:06;5.53;;;5.10;;
18100;SDS011;9177;49.156;8.142;2023-02-15T04:10:33;5.40;;;4.90;;
18100;SDS011;9177;49.156;8.142;2023-02-15T04:13:17;5.10;;;4.70;;
18100;SDS011;9177;49.156;8.142;2023-02-15T04:15:44;5.00;;;4.60;;
18100;SDS011;9177;49.156;8.142;2023-02-15T04:18:28;5.00;;;4.60;;
18100;SDS011;9177;49.156;8.142;2023-02-15T04:21:14;4.73;;;4.33;;
18100;SDS011;9177;49.156;8.142;2023-02-15T04:23:59;4.90;;;4.50;;
18100;SDS011;9177;49.156;8.142;2023-02-15T04:26:43;5.10;;;4.70;;
18100;SDS011;9177;49.156;8.142;2023-02-15T04:29:12;4.90;;;4.50;;
18100;SDS011;9177;49.156;8.142;2023-02-15T04:31:39;4.82;;;4.43;;
18100;SDS011;9177;49.156;8.142;2023-02-15T04:34:08;4.93;;;4.53;;
18100;SDS011;9177;49.156;8.142;2023-02-15T04:36:37;4.90;;;4.50;;
18100;SDS011;9177;49.156;8.142;2023-02-15T04:39:04;5.00;;;4.60;;
18100;SDS011;9177;49.156;8.142;2023-02-15T04:41:32;5.57;;;5.10;;
18100;SDS011;9177;49.156;8.142;2023-02-15T04:43:59;4.97;;;4.57;;
18100;SDS011;9177;49.156;8.142;2023-02-15T04:46:27;4.60;;;4.20;;
18100;SDS011;9177;49.156;8.142;2023-02-15T04:48:54;4.67;;;4.27;;
18100;SDS011;9177;49.156;8.142;2023-02-15T04:51:21;4.80;;;4.40;;
18100;SDS011;9177;49.156;8.142;2023-02-15T04:53:49;5.00;;;4.60;;
18100;SDS011;9177;49.156;8.142;2023-02-15T04:56:18;4.40;;;4.00;;
18100;SDS011;9177;49.156;8.142;2023-02-15T04:58:45;4.67;;;4.27;;
18100;SDS011;9177;49.156;8.142;2023-02-15T05:01:12;4.67;;;4.27;;
18100;SDS011;9177;49.156;8.142;2023-02-15T05:03:39;4.03;;;3.73;;
18100;SDS011;9177;49.156;8.142;2023-02-15T05:06:06;4.70;;;4.30;;
18100;SDS011;9177;49.156;8.142;2023-02-15T05:08:33;4.10;;;3.80;;
18100;SDS011;9177;49.156;8.142;2023-02-15T05:11:01;4.70;;;4.30;;
18100;SDS011;9177;49.156;8.142;2023-02-15T05:13:31;4.13;;;3.83;;
18100;SDS011;9177;49.156;8.142;2023-02-15T05:15:58;4.10;;;3.80;;
18100;SDS011;9177;49.156;8.142;2023-02-15T05:18:27;4.80;;;4.45;;
18100;SDS011;9177;49.156;8.142;2023-02-15T05:20:57;4.43;;;4.03;;
18100;SDS011;9177;49.156;8.142;2023-02-15T05:23:23;4.47;;;4.13;;
18100;SDS011;9177;49.156;8.142;2023-02-15T05:25:50;4.17;;;3.87;;
18100;SDS011;9177;49.156;8.142;2023-02-15T05:28:36;3.70;;;3.40;;
18100;SDS011;9177;49.156;8.142;2023-02-15T05:31:06;4.47;;;4.07;;
18100;SDS011;9177;49.156;8.142;2023-02-15T05:33:35;4.33;;;3.97;;
18100;SDS011;9177;49.156;8.142;2023-02-15T05:36:05;4.40;;;4.00;;
18100;SDS011;9177;49.156;8.142;2023-02-15T05:38:33;4.50;;;4.10;;
18100;SDS011;9177;49.156;8.142;2023-02-15T05:41:08;4.03;;;3.73;;
18100;SDS011;9177;49.156;8.142;2023-02-15T05:43:38;4.13;;;3.83;;
18100;SDS011;9177;49.156;8.142;2023-02-15T05:46:05;3.97;;;3.67;;
18100;SDS011;9177;49.156;8.142;2023-02-15T05:48:33;3.93;;;3.63;;
18100;SDS011;9177;49.156;8.142;2023-02-15T05:51:01;4.13;;;3.83;;
18100;SDS011;9177;49.156;8.142;2023-02-15T05:53:31;4.33;;;3.93;;
18100;SDS011;9177;49.156;8.142;2023-02-15T05:56:00;4.17;;;3.87;;
18100;SDS011;9177;49.156;8.142;2023-02-15T05:58:27;3.90;;;3.60;;
18100;SDS011;9177;49.156;8.142;2023-02-15T06:00:57;3.93;;;3.63;;
18100;SDS011;9177;49.156;8.142;2023-02-15T06:03:24;3.90;;;3.47;;
18100;SDS011;9177;49.156;8.142;2023-02-15T06:05:53;4.20;;;3.90;;
18100;SDS011;9177;49.156;8.142;2023-02-15T06:08:20;4.33;;;4.03;;
18100;SDS011;9177;49.156;8.142;2023-02-15T06:10:47;4.20;;;3.90;;
18100;SDS011;9177;49.156;8.142;2023-02-15T06:13:14;4.13;;;3.73;;
18100;SDS011;9177;49.156;8.142;2023-02-15T06:15:41;3.97;;;3.67;;
18100;SDS011;9177;49.156;8.142;2023-02-15T06:18:09;4.53;;;4.13;;
18100;SDS011;9177;49.156;8.142;2023-02-15T06:20:36;3.77;;;3.47;;
18100;SDS011;9177;49.156;8.142;2023-02-15T06:23:03;4.10;;;3.80;;
18100;SDS011;9177;49.156;8.142;2023-02-15T06:25:30;4.07;;;3.77;;
18100;SDS011;9177;49.156;8.142;2023-02-15T06:27:57;3.90;;;3.60;;
18100;SDS011;9177;49.156;8.142;2023-02-15T06:30:24;3.70;;;3.40;;
18100;SDS011;9177;49.156;8.142;2023-02-15T06:32:50;3.20;;;3.00;;
18100;SDS011;9177;49.156;8.142;2023-02-15T06:35:19;4.10;;;3.77;;
18100;SDS011;9177;49.156;8.142;2023-02-15T06:37:47;4.13;;;3.73;;
18100;SDS011;9177;49.156;8.142;2023-02-15T06:40:14;3.73;;;3.43;;
18100;SDS011;9177;49.156;8.142;2023-02-15T06:42:41;3.67;;;3.37;;
18100;SDS011;9177;49.156;8.142;2023-02-15T06:45:08;4.10;;;3.70;;
18100;SDS011;9177;49.156;8.142;2023-02-15T06:47:36;3.60;;;3.30;;
18100;SDS011;9177;49.156;8.142;2023-02-15T06:50:04;3.80;;;3.50;;
18100;SDS011;9177;49.156;8.142;2023-02-15T06:52:33;3.73;;;3.43;;
18100;SDS011;9177;49.156;8.142;2023-02-15T06:55:00;3.83;;;3.53;;
18100;SDS011;9177;49.156;8.142;2023-02-15T06:57:28;3.27;;;2.97;;
18100;SDS011;9177;49.156;8.142;2023-02-15T06:59:55;4.17;;;3.77;;
18100;SDS011;9177;49.156;8.142;2023-02-15T07:02:23;3.43;;;3.13;;
18100;SDS011;9177;49.156;8.142;2023-02-15T07:04:50;3.80;;;3.50;;
18100;SDS011;9177;49.156;8.142;2023-02-15T07:07:17;3.70;;;3.40;;
18100;SDS011;9177;49.156;8.142;2023-02-15T07:09:45;3.97;;;3.67;;
18100;SDS011;9177;49.156;8.142;2023-02-15T07:12:12;4.20;;;3.80;;
18100;SDS011;9177;49.156;8.142;2023-02-15T07:14:56;4.17;;;3.87;;
18100;SDS011;9177;49.156;8.142;2023-02-15T07:17:23;4.10;;;3.73;;
18100;SDS011;9177;49.156;8.142;2023-02-15T07:19:54;3.87;;;3.57;;
18100;SDS011;9177;49.156;8.142;2023-02-15T07:22:21;4.17;;;3.87;;
18100;SDS011;9177;49.156;8.142;2023-02-15T07:24:49;4.17;;;3.77;;
18100;SDS011;9177;49.156;8.142;2023-02-15T07:27:19;3.70;;;3.40;;
18100;SDS011;9177;49.156;8.142;2023-02-15T07:29:46;4.20;;;3.70;;
18100;SDS011;9177;49.156;8.142;2023-02-15T07:32:13;4.03;;;3.73;;
18100;SDS011;9177;49.156;8.142;2023-02-15T07:34:40;3.77;;;3.47;;
18100;SDS011;9177;49.156;8.142;2023-02-15T07:37:07;3.90;;;3.60;;
18100;SDS011;9177;49.156;8.142;2023-02-15T07:39:34;4.13;;;3.80;;
18100;SDS011;9177;49.156;8.142;2023-02-15T07:42:02;3.80;;;3.50;;
18100;SDS011;9177;49.156;8.142;2023-02-15T07:44:30;4.13;;;3.83;;
18100;SDS011;9177;49.156;8.142;2023-02-15T07:46:57;4.50;;;4.10;;
18100;SDS011;9177;49.156;8.142;2023-02-15T07:49:24;4.40;;;3.80;;
18100;SDS011;9177;49.156;8.142;2023-02-15T07:51:51;3.80;;;3.50;;
18100;SDS011;9177;49.156;8.142;2023-02-15T07:54:18;4.03;;;3.73;;
18100;SDS011;9177;49.156;8.142;2023-02-15T07:56:45;3.83;;;3.53;;
18100;SDS011;9177;49.156;8.142;2023-02-15T07:59:13;4.40;;;4.00;;
18100;SDS011;9177;49.156;8.142;2023-02-15T08:01:40;3.90;;;3.60;;
18100;SDS011;9177;49.156;8.142;2023-02-15T08:04:07;4.30;;;3.57;;
18100;SDS011;9177;49.156;8.142;2023-02-15T08:06:36;4.17;;;3.77;;
18100;SDS011;9177;49.156;8.142;2023-02-15T08:09:07;4.40;;;4.00;;
18100;SDS011;9177;49.156;8.142;2023-02-15T08:11:36;4.43;;;3.97;;
18100;SDS011;9177;49.156;8.142;2023-02-15T08:14:05;4.03;;;3.63;;
18100;SDS011;9177;49.156;8.142;2023-02-15T08:16:36;4.53;;;3.53;;
18100;SDS011;9177;49.156;8.142;2023-02-15T08:19:04;3.70;;;3.40;;
18100;SDS011;9177;49.156;8.142;2023-02-15T08:21:33;3.70;;;3.40;;
18100;SDS011;9177;49.156;8.142;2023-02-15T08:24:01;4.40;;;4.00;;
18100;SDS011;9177;49.156;8.142;2023-02-15T08:26:29;3.90;;;3.40;;
18100;SDS011;9177;49.156;8.142;2023-02-15T08:28:57;3.70;;;3.40;;
18100;SDS011;9177;49.156;8.142;2023-02-15T08:31:25;4.37;;;3.97;;
18100;SDS011;9177;49.156;8.142;2023-02-15T08:33:54;3.60;;;3.30;;
18100;SDS011;9177;49.156;8.142;2023-02-15T08:36:23;4.07;;;3.70;;
18100;SDS011;9177;49.156;8.142;2023-02-15T08:38:52;4.77;;;3.47;;
18100;SDS011;9177;49.156;8.142;2023-02-15T08:41:19;3.93;;;3.50;;
18100;SDS011;9177;49.156;8.142;2023-02-15T08:43:48;6.53;;;3.50;;
18100;SDS011;9177;49.156;8.142;2023-02-15T08:46:17;3.73;;;3.37;;
18100;SDS011;9177;49.156;8.142;2023-02-15T08:48:55;4.33;;;3.37;;
18100;SDS011;9177;49.156;8.142;2023-02-15T08:51:23;3.67;;;3.37;;
18100;SDS011;9177;49.156;8.142;2023-02-15T08:53:51;3.63;;;3.33;;
18100;SDS011;9177;49.156;8.142;2023-02-15T08:56:20;6.70;;;3.50;;
18100;SDS011;9177;49.156;8.142;2023-02-15T08:58:48;4.50;;;3.67;;
18100;SDS011;9177;49.156;8.142;2023-02-15T09:01:16;3.33;;;3.13;;
18100;SDS011;9177;49.156;8.142;2023-02-15T09:03:45;4.10;;;3.70;;
18100;SDS011;9177;49.156;8.142;2023-02-15T09:06:16;5.13;;;3.70;;
18100;SDS011;9177;49.156;8.142;2023-02-15T09:08:43;4.40;;;3.70;;
18100;SDS011;9177;49.156;8.142;2023-02-15T09:11:11;4.33;;;3.50;;
18100;SDS011;9177;49.156;8.142;2023-02-15T09:13:42;5.27;;;3.40;;
18100;SDS011;9177;49.156;8.142;2023-02-15T09:16:09;3.83;;;3.47;;
18100;SDS011;9177;49.156;8.142;2023-02-15T09:18:37;4.07;;;3.67;;
18100;SDS011;9177;49.156;8.142;2023-02-15T09:21:05;4.10;;;3.70;;
18100;SDS011;9177;49.156;8.142;2023-02-15T09:23:35;3.60;;;3.30;;
18100;SDS011;9177;49.156;8.142;2023-02-15T09:26:03;3.80;;;3.40;;
18100;SDS011;9177;49.156;8.142;2023-02-15T09:28:31;3.43;;;3.13;;
18100;SDS011;9177;49.156;8.142;2023-02-15T09:31:04;4.50;;;3.60;;
18100;SDS011;9177;49.156;8.142;2023-02-15T09:33:39;3.70;;;3.40;;
18100;SDS011;9177;49.156;8.142;2023-02-15T09:36:13;3.87;;;3.57;;
18100;SDS011;9177;49.156;8.142;2023-02-15T09:38:43;4.23;;;3.53;;
18100;SDS011;9177;49.156;8.142;2023-02-15T09:41:17;4.63;;;3.97;;
18100;SDS011;9177;49.156;8.142;2023-02-15T09:43:59;4.17;;;3.77;;
18100;SDS011;9177;49.156;8.142;2023-02-15T09:49:38;4.03;;;3.20;;
18100;SDS011;9177;49.156;8.142;2023-02-15T09:52:19;4.30;;;3.90;;
18100;SDS011;9177;49.156;8.142;2023-02-15T09:55:15;7.60;;;3.60;;
18100;SDS011;9177;49.156;8.142;2023-02-15T09:57:52;4.07;;;3.67;;
18100;SDS011;9177;49.156;8.142;2023-02-15T10:00:29;5.00;;;3.83;;
18100;SDS011;9177;49.156;8.142;2023-02-15T10:03:10;3.50;;;3.20;;
18100;SDS011;9177;49.156;8.142;2023-02-15T10:05:48;5.03;;;4.00;;
18100;SDS011;9177;49.156;8.142;2023-02-15T10:08:32;4.10;;;3.70;;
18100;SDS011;9177;49.156;8.142;2023-02-15T10:11:22;3.73;;;3.43;;
18100;SDS011;9177;49.156;8.142;2023-02-15T10:14:10;4.10;;;3.50;;
18100;SDS011;9177;49.156;8.142;2023-02-15T10:16:53;4.33;;;4.03;;
18100;SDS011;9177;49.156;8.142;2023-02-15T10:19:29;4.40;;;4.00;;
18100;SDS011;9177;49.156;8.142;2023-02-15T10:22:08;3.90;;;3.60;;
18100;SDS011;9177;49.156;8.142;2023-02-15T10:27:39;4.27;;;3.83;;
18100;SDS011;9177;49.156;8.142;2023-02-15T10:30:12;3.80;;;3.50;;
18100;SDS011;9177;49.156;8.142;2023-02-15T10:32:40;4.87;;;3.83;;
18100;SDS011;9177;49.156;8.142;2023-02-15T10:35:13;4.97;;;4.47;;
18100;SDS011;9177;49.156;8.142;2023-02-15T10:40:45;4.20;;;3.80;;
18100;SDS011;9177;49.156;8.142;2023-02-15T10:43:27;4.10;;;3.80;;
18100;SDS011;9177;49.156;8.142;2023-02-15T10:46:11;5.13;;;4.63;;
18100;SDS011;9177;49.156;8.142;2023-02-15T10:48:53;5.80;;;4.07;;
18100;SDS011;9177;49.156;8.142;2023-02-15T10:51:37;5.67;;;4.47;;
18100;SDS011;9177;49.156;8.142;2023-02-15T10:54:15;4.37;;;3.97;;
18100;SDS011;9177;49.156;8.142;2023-02-15T10:56:53;4.50;;;4.10;;
18100;SDS011;9177;49.156;8.142;2023-02-15T10:59:35;4.13;;;3.83;;
18100;SDS011;9177;49.156;8.142;2023-02-15T11:02:23;4.30;;;3.90;;
18100;SDS011;9177;49.156;8.142;2023-02-15T11:05:02;4.60;;;4.27;;
18100;SDS011;9177;49.156;8.142;2023-02-15T11:07:45;4.63;;;4.23;;
18100;SDS011;9177;49.156;8.142;2023-02-15T11:10:23;5.00;;;4.50;;
18100;SDS011;9177;49.156;8.142;2023-02-15T11:12:56;4.57;;;4.17;;
18100;SDS011;9177;49.156;8.142;2023-02-15T11:15:26;4.73;;;4.33;;
18100;SDS011;9177;49.156;8.142;2023-02-15T11:17:59;5.93;;;4.43;;
18100;SDS011;9177;49.156;8.142;2023-02-15T11:20:33;6.53;;;4.37;;
18100;SDS011;9177;49.156;8.142;2023-02-15T11:23:07;4.77;;;4.27;;
18100;SDS011;9177;49.156;8.142;2023-02-15T11:25:43;4.80;;;4.33;;
18100;SDS011;9177;49.156;8.142;2023-02-15T11:28:17;4.20;;;3.83;;
18100;SDS011;9177;49.156;8.142;2023-02-15T11:30:49;4.60;;;4.20;;
18100;SDS011;9177;49.156;8.142;2023-02-15T11:33:20;6.93;;;4.20;;
18100;SDS011;9177;49.156;8.142;2023-02-15T11:35:52;5.37;;;4.53;;
18100;SDS011;9177;49.156;8.142;2023-02-15T11:38:26;4.77;;;4.30;;
18100;SDS011;9177;49.156;8.142;2023-02-15T11:40:56;5.57;;;4.20;;
18100;SDS011;9177;49.156;8.142;2023-02-15T11:43:28;5.17;;;4.67;;
18100;SDS011;9177;49.156;8.142;2023-02-15T11:46:02;5.40;;;4.90;;
18100;SDS011;9177;49.156;8.142;2023-02-15T11:48:30;5.17;;;4.77;;
18100;SDS011;9177;49.156;8.142;2023-02-15T11:50:59;5.70;;;4.87;;
18100;SDS011;9177;49.156;8.142;2023-02-15T11:53:28;6.10;;;4.97;;
18100;SDS011;9177;49.156;8.142;2023-02-15T11:55:59;5.67;;;4.77;;
18100;SDS011;9177;49.156;8.142;2023-02-15T11:58:29;5.97;;;4.43;;
18100;SDS011;9177;49.156;8.142;2023-02-15T12:01:07;5.50;;;5.00;;
18100;SDS011;9177;49.156;8.142;2023-02-15T12:03:40;7.30;;;5.00;;
18100;SDS011;9177;49.156;8.142;2023-02-15T12:06:14;5.87;;;4.53;;
18100;SDS011;9177;49.156;8.142;2023-02-15T12:08:49;4.77;;;4.23;;
18100;SDS011;9177;49.156;8.142;2023-02-15T12:11:29;4.97;;;4.53;;
18100;SDS011;9177;49.156;8.142;2023-02-15T12:14:00;6.23;;;5.33;;
18100;SDS011;9177;49.156;8.142;2023-02-15T12:16:33;5.28;;;4.78;;
18100;SDS011;9177;49.156;8.142;2023-02-15T12:19:11;6.35;;;4.80;;
18100;SDS011;9177;49.156;8.142;2023-02-15T12:21:49;6.93;;;5.17;;
18100;SDS011;9177;49.156;8.142;2023-02-15T12:24:20;5.30;;;4.75;;
18100;SDS011;9177;49.156;8.142;2023-02-15T12:26:55;6.07;;;4.60;;
18100;SDS011;9177;49.156;8.142;2023-02-15T12:29:26;5.90;;;5.10;;
18100;SDS011;9177;49.156;8.142;2023-02-15T12:31:58;10.50;;;5.30;;
18100;SDS011;9177;49.156;8.142;2023-02-15T12:34:26;5.68;;;4.88;;
18100;SDS011;9177;49.156;8.142;2023-02-15T12:36:58;8.57;;;5.07;;
18100;SDS011;9177;49.156;8.142;2023-02-15T12:39:29;6.37;;;5.10;;
18100;SDS011;9177;49.156;8.142;2023-02-15T12:42:01;5.40;;;4.83;;
18100;SDS011;9177;49.156;8.142;2023-02-15T12:44:31;5.70;;;5.07;;
18100;SDS011;9177;49.156;8.142;2023-02-15T12:47:02;6.93;;;4.77;;
18100;SDS011;9177;49.156;8.142;2023-02-15T12:49:31;5.73;;;4.60;;
18100;SDS011;9177;49.156;8.142;2023-02-15T12:52:01;9.37;;;4.83;;
18100;SDS011;9177;49.156;8.142;2023-02-15T12:54:35;5.60;;;5.10;;
18100;SDS011;9177;49.156;8.142;2023-02-15T12:57:21;5.87;;;4.57;;
18100;SDS011;9177;49.156;8.142;2023-02-15T12:59:53;4.63;;;4.20;;
18100;SDS011;9177;49.156;8.142;2023-02-15T13:02:27;6.03;;;4.73;;
18100;SDS011;9177;49.156;8.142;2023-02-15T13:05:03;5.60;;;4.30;;
18100;SDS011;9177;49.156;8.142;2023-02-15T13:07:44;5.70;;;4.73;;
18100;SDS011;9177;49.156;8.142;2023-02-15T13:10:22;5.20;;;4.70;;
18100;SDS011;9177;49.156;8.142;2023-02-15T13:12:53;4.87;;;4.27;;
18100;SDS011;9177;49.156;8.142;2023-02-15T13:15:23;6.87;;;4.93;;
18100;SDS011;9177;49.156;8.142;2023-02-15T13:18:01;5.23;;;4.17;;
18100;SDS011;9177;49.156;8.142;2023-02-15T13:20:30;5.53;;;4.70;;
18100;SDS011;9177;49.156;8.142;2023-02-15T13:23:02;5.43;;;4.30;;
18100;SDS011;9177;49.156;8.142;2023-02-15T13:25:35;7.13;;;4.30;;
18100;SDS011;9177;49.156;8.142;2023-02-15T13:28:11;7.27;;;4.73;;
18100;SDS011;9177;49.156;8.142;2023-02-15T13:30:42;4.70;;;4.30;;
18100;SDS011;9177;49.156;8.142;2023-02-15T13:33:14;5.00;;;4.43;;
18100;SDS011;9177;49.156;8.142;2023-02-15T13:35:47;5.97;;;4.60;;
18100;SDS011;9177;49.156;8.142;2023-02-15T13:38:37;5.70;;;4.13;;
18100;SDS011;9177;49.156;8.142;2023-02-15T13:41:12;5.83;;;4.67;;
18100;SDS011;9177;49.156;8.142;2023-02-15T13:43:46;9.03;;;4.23;;
18100;SDS011;9177;49.156;8.142;2023-02-15T13:46:23;5.17;;;4.27;;
18100;SDS011;9177;49.156;8.142;2023-02-15T13:49:07;6.93;;;4.30;;
18100;SDS011;9177;49.156;8.142;2023-02-15T13:51:45;7.67;;;4.43;;
18100;SDS011;9177;49.156;8.142;2023-02-15T13:54:43;5.70;;;4.30;;
18100;SDS011;9177;49.156;8.142;2023-02-15T13:57:40;7.77;;;4.37;;
18100;SDS011;9177;49.156;8.142;2023-02-15T14:00:21;7.90;;;4.60;;
18100;SDS011;9177;49.156;8.142;2023-02-15T14:06:23;6.30;;;4.35;;
18100;SDS011;9177;49.156;8.142;2023-02-15T14:09:06;7.53;;;4.38;;
18100;SDS011;9177;49.156;8.142;2023-02-15T14:11:41;6.10;;;4.70;;
18100;SDS011;9177;49.156;8.142;2023-02-15T14:14:23;7.72;;;4.65;;
18100;SDS011;9177;49.156;8.142;2023-02-15T14:17:00;4.97;;;4.43;;
18100;SDS011;9177;49.156;8.142;2023-02-15T14:19:33;6.13;;;4.70;;
18100;SDS011;9177;49.156;8.142;2023-02-15T14:22:07;6.60;;;4.07;;
18100;SDS011;9177;49.156;8.142;2023-02-15T14:24:40;7.50;;;4.73;;
18100;SDS011;9177;49.156;8.142;2023-02-15T14:27:14;6.67;;;4.40;;
18100;SDS011;9177;49.156;8.142;2023-02-15T14:29:49;5.33;;;4.83;;
18100;SDS011;9177;49.156;8.142;2023-02-15T14:32:21;4.87;;;4.47;;
18100;SDS011;9177;49.156;8.142;2023-02-15T14:34:54;4.93;;;4.43;;
18100;SDS011;9177;49.156;8.142;2023-02-15T14:37:27;4.67;;;4.27;;
18100;SDS011;9177;49.156;8.142;2023-02-15T14:40:05;6.90;;;4.23;;
18100;SDS011;9177;49.156;8.142;2023-02-15T14:42:53;5.75;;;4.30;;
18100;SDS011;9177;49.156;8.142;2023-02-15T14:45:28;4.63;;;4.10;;
18100;SDS011;9177;49.156;8.142;2023-02-15T14:48:04;4.78;;;4.10;;
18100;SDS011;9177;49.156;8.142;2023-02-15T14:50:39;5.40;;;4.25;;
18100;SDS011;9177;49.156;8.142;2023-02-15T14:53:32;4.72;;;4.32;;
18100;SDS011;9177;49.156;8.142;2023-02-15T14:56:22;6.20;;;4.57;;
18100;SDS011;9177;49.156;8.142;2023-02-15T14:59:07;6.10;;;4.22;;
18100;SDS011;9177;49.156;8.142;2023-02-15T15:01:51;5.97;;;4.60;;
18100;SDS011;9177;49.156;8.142;2023-02-15T15:04:24;5.50;;;4.50;;
18100;SDS011;9177;49.156;8.142;2023-02-15T15:06:59;5.33;;;4.10;;
18100;SDS011;9177;49.156;8.142;2023-02-15T15:09:31;4.90;;;4.50;;
18100;SDS011;9177;49.156;8.142;2023-02-15T15:15:04;4.40;;;4.00;;
18100;SDS011;9177;49.156;8.142;2023-02-15T15:17:52;4.80;;;4.40;;
18100;SDS011;9177;49.156;8.142;2023-02-15T15:26:30;4.50;;;4.10;;
18100;SDS011;9177;49.156;8.142;2023-02-15T15:29:03;5.20;;;4.70;;
18100;SDS011;9177;49.156;8.142;2023-02-15T15:31:32;6.27;;;4.00;;
18100;SDS011;9177;49.156;8.142;2023-02-15T15:43:32;4.90;;;4.40;;
18100;SDS011;9177;49.156;8.142;2023-02-15T15:49:27;5.07;;;4.33;;
18100;SDS011;9177;49.156;8.142;2023-02-15T15:51:59;8.77;;;4.40;;
18100;SDS011;9177;49.156;8.142;2023-02-15T15:54:27;4.57;;;4.17;;
18100;SDS011;9177;49.156;8.142;2023-02-15T15:56:55;4.93;;;4.50;;
18100;SDS011;9177;49.156;8.142;2023-02-15T15:59:26;5.40;;;4.90;;
18100;SDS011;9177;49.156;8.142;2023-02-15T16:01:56;5.00;;;4.60;;
18100;SDS011;9177;49.156;8.142;2023-02-15T16:04:31;5.00;;;4.60;;
18100;SDS011;9177;49.156;8.142;2023-02-15T16:07:13;4.70;;;4.30;;
18100;SDS011;9177;49.156;8.142;2023-02-15T16:09:53;5.50;;;5.00;;
18100;SDS011;9177;49.156;8.142;2023-02-15T16:12:22;4.70;;;4.30;;